Terminal Aerodrome Forecast
Issued by NWS Blacksburg, VA

Home | Current Version | Previous Version | Text Only | Print | Product List | Glossary On
Versions: 1 2 3 4 5 6 7 8 9 10 11 12 13 14 15 16 17 18 19 20 21 22 23 24 25 26 27 28 29 30
000
FTUS41 KRNK 142323
TAFROA
TAF
KROA 142323Z 1500/1524 30012G25KT P6SM BKN040
     FM150200 28007KT P6SM BKN070
     FM151500 28009G20KT P6SM SCT070 BKN250
     FM151700 28007KT P6SM SCT250
     FM152300 VRB02KT P6SM SCT100=

USA.gov is the U.S. government's official web portal to all federal, state and local government web resources and services.